createdAt,value
2023-03-01T00:00:24.654Z,19.30
2023-03-01T00:01:24.620Z,25.80
2023-03-01T00:02:24.654Z,45.10
2023-03-01T00:03:24.628Z,38.10
2023-03-01T00:04:24.603Z,49.20
2023-03-01T00:05:24.622Z,39.30
2023-03-01T00:06:24.588Z,28.80
2023-03-01T00:07:24.592Z,23.80
2023-03-01T00:08:24.577Z,20.80
2023-03-01T00:09:24.566Z,26.70
2023-03-01T00:10:24.582Z,29.70
2023-03-01T00:11:24.560Z,31.60
2023-03-01T00:12:24.558Z,26.00
2023-03-01T00:13:24.539Z,26.30
2023-03-01T00:14:24.532Z,22.50
2023-03-01T00:15:24.556Z,20.80
2023-03-01T00:16:24.549Z,18.00
2023-03-01T00:17:24.503Z,21.70
2023-03-01T00:18:24.516Z,18.20
2023-03-01T00:19:24.494Z,20.70
2023-03-01T00:20:24.509Z,20.00
2023-03-01T00:21:24.487Z,22.00
2023-03-01T00:22:24.475Z,21.50
2023-03-01T00:23:24.462Z,26.60
2023-03-01T00:24:25.453Z,30.90
2023-03-01T00:25:24.475Z,31.20
2023-03-01T00:26:24.463Z,29.70
2023-03-01T00:27:24.439Z,23.90
2023-03-01T00:28:24.438Z,24.80
2023-03-01T00:29:24.422Z,22.90
2023-03-01T00:30:24.452Z,27.30
2023-03-01T00:31:24.414Z,27.10
2023-03-01T00:32:24.445Z,27.80
2023-03-01T00:33:24.408Z,20.90
2023-03-01T00:34:24.390Z,25.60
2023-03-01T00:35:24.421Z,25.60
2023-03-01T00:36:24.372Z,22.60
2023-03-01T00:37:24.371Z,22.80
2023-03-01T00:38:24.360Z,21.80
2023-03-01T00:39:24.355Z,26.30
2023-03-01T00:40:24.374Z,22.90
2023-03-01T00:41:24.343Z,21.90
2023-03-01T00:42:24.340Z,23.40
2023-03-01T00:43:24.326Z,25.50
2023-03-01T00:44:24.318Z,34.60
2023-03-01T00:45:24.354Z,36.60
2023-03-01T00:46:24.331Z,42.20
2023-03-01T00:47:24.309Z,31.40
2023-03-01T00:48:24.290Z,31.10
2023-03-01T00:49:24.296Z,29.80
2023-03-01T00:50:24.316Z,30.60
2023-03-01T00:51:24.279Z,31.10
2023-03-01T00:52:24.263Z,24.80
2023-03-01T00:53:24.256Z,23.00
2023-03-01T00:54:24.242Z,28.50
2023-03-01T00:55:24.236Z,25.70
2023-03-01T00:56:24.259Z,26.20
2023-03-01T00:57:24.227Z,22.60
2023-03-01T00:58:24.206Z,22.70
2023-03-01T00:59:24.202Z,20.70
2023-03-01T01:00:24.203Z,21.90
2023-03-01T01:01:24.271Z,23.00
2023-03-01T01:02:24.204Z,24.20
2023-03-01T01:03:24.181Z,22.50
2023-03-01T01:04:24.176Z,21.70
2023-03-01T01:05:24.168Z,25.30
2023-03-01T01:06:24.183Z,20.80
2023-03-01T01:07:24.165Z,21.80
2023-03-01T01:08:24.160Z,25.00
2023-03-01T01:09:24.152Z,25.60
2023-03-01T01:10:24.130Z,25.40
2023-03-01T01:11:24.151Z,25.30
2023-03-01T01:12:24.102Z,24.80
2023-03-01T01:13:25.106Z,30.90
2023-03-01T01:14:24.094Z,30.20
2023-03-01T01:15:24.090Z,31.00
2023-03-01T01:16:24.110Z,26.70
2023-03-01T01:17:24.083Z,29.90
2023-03-01T01:18:24.064Z,30.10
2023-03-01T01:19:24.053Z,24.80
2023-03-01T01:20:24.035Z,23.70
2023-03-01T01:21:25.092Z,25.70
2023-03-01T01:22:24.032Z,26.50
2023-03-01T01:23:24.025Z,24.40
2023-03-01T01:24:24.022Z,24.70
2023-03-01T01:25:24.016Z,24.40
2023-03-01T01:26:24.026Z,24.50
2023-03-01T01:27:24.000Z,25.80
2023-03-01T01:28:23.985Z,24.60
2023-03-01T01:29:23.991Z,24.50
2023-03-01T01:30:23.978Z,26.50
2023-03-01T01:31:24.077Z,25.20
2023-03-01T01:32:26.080Z,25.00
2023-03-01T01:33:23.952Z,23.40
2023-03-01T01:34:23.940Z,23.90
2023-03-01T01:35:23.965Z,23.60
2023-03-01T01:36:23.960Z,24.80
2023-03-01T01:37:23.937Z,24.50
2023-03-01T01:38:23.918Z,24.60
2023-03-01T01:39:23.910Z,21.40
2023-03-01T01:40:23.899Z,22.60
2023-03-01T01:41:23.943Z,26.00
2023-03-01T01:42:23.882Z,25.30
2023-03-01T01:43:23.880Z,25.00
2023-03-01T01:44:23.874Z,28.60
2023-03-01T01:45:23.865Z,23.20
2023-03-01T01:46:23.923Z,22.10
2023-03-01T01:47:23.853Z,22.70
2023-03-01T01:48:23.837Z,23.40
2023-03-01T01:49:23.835Z,26.00
2023-03-01T01:50:23.827Z,19.90
2023-03-01T01:51:23.827Z,22.30
2023-03-01T01:52:23.832Z,21.80
2023-03-01T01:53:23.803Z,20.90
2023-03-01T01:54:23.805Z,24.60
2023-03-01T01:55:23.789Z,24.20
2023-03-01T01:56:23.791Z,22.60
2023-03-01T01:57:23.805Z,25.20
2023-03-01T01:58:23.762Z,21.50
2023-03-01T01:59:23.760Z,23.90
2023-03-01T02:00:23.762Z,20.80
2023-03-01T02:01:23.754Z,23.70
2023-03-01T02:02:23.907Z,22.80
2023-03-01T02:03:23.852Z,22.40
2023-03-01T02:04:23.725Z,23.50
2023-03-01T02:05:23.716Z,20.30
2023-03-01T02:06:23.709Z,24.90
2023-03-01T02:07:23.747Z,24.20
2023-03-01T02:08:23.694Z,22.00
2023-03-01T02:09:23.683Z,24.20
2023-03-01T02:10:23.681Z,22.40
2023-03-01T02:11:23.670Z,23.10
2023-03-01T02:12:23.685Z,21.50
2023-03-01T02:13:23.661Z,23.50
2023-03-01T02:14:23.642Z,23.00
2023-03-01T02:15:23.639Z,23.10
2023-03-01T02:16:23.679Z,23.50
2023-03-01T02:17:23.656Z,25.70
2023-03-01T02:18:23.624Z,24.00
2023-03-01T02:19:23.617Z,22.30
2023-03-01T02:20:23.607Z,24.10
2023-03-01T02:21:23.598Z,27.30
2023-03-01T02:22:23.656Z,22.00
2023-03-01T02:23:23.593Z,24.50
2023-03-01T02:24:23.574Z,22.20
2023-03-01T02:25:23.568Z,24.40
2023-03-01T02:26:23.561Z,27.20
2023-03-01T02:27:23.608Z,24.80
2023-03-01T02:28:23.548Z,24.40
2023-03-01T02:29:23.540Z,27.60
2023-03-01T02:30:23.522Z,25.50
2023-03-01T02:31:23.604Z,27.70
2023-03-01T02:32:23.550Z,28.20
2023-03-01T02:33:23.508Z,29.10
2023-03-01T02:34:23.504Z,29.00
2023-03-01T02:35:23.539Z,28.40
2023-03-01T02:36:23.485Z,24.00
2023-03-01T02:37:23.514Z,24.10
2023-03-01T02:38:23.477Z,24.40
2023-03-01T02:39:23.465Z,24.50
2023-03-01T02:40:23.456Z,25.00
2023-03-01T02:41:23.445Z,27.40
2023-03-01T02:42:25.529Z,27.90
2023-03-01T02:43:23.431Z,25.00
2023-03-01T02:44:23.426Z,23.10
2023-03-01T02:45:23.422Z,25.70
2023-03-01T02:46:23.455Z,27.80
2023-03-01T02:47:23.415Z,24.10
2023-03-01T02:48:23.429Z,26.30
2023-03-01T02:49:23.388Z,27.20
2023-03-01T02:50:23.384Z,24.00
2023-03-01T02:51:23.378Z,24.60
2023-03-01T02:52:23.389Z,25.60
2023-03-01T02:53:23.408Z,26.20
2023-03-01T02:54:23.362Z,29.10
2023-03-01T02:55:23.350Z,24.30
2023-03-01T02:56:23.339Z,27.80
2023-03-01T02:57:23.337Z,24.50
2023-03-01T02:58:23.382Z,25.40
2023-03-01T02:59:23.328Z,25.20
2023-03-01T03:00:23.322Z,23.30
2023-03-01T03:01:23.309Z,25.30
2023-03-01T03:02:23.297Z,26.60
2023-03-01T03:03:23.350Z,27.50
2023-03-01T03:04:23.280Z,24.60
2023-03-01T03:05:23.270Z,32.40
2023-03-01T03:06:23.276Z,27.90
2023-03-01T03:07:23.270Z,29.90
2023-03-01T03:08:23.295Z,29.60
2023-03-01T03:09:23.248Z,27.20
2023-03-01T03:10:23.247Z,32.20
2023-03-01T03:11:23.230Z,28.60
2023-03-01T03:12:23.223Z,26.90
2023-03-01T03:13:23.286Z,30.80
2023-03-01T03:14:23.208Z,26.30
2023-03-01T03:15:23.203Z,28.70
2023-03-01T03:16:23.272Z,30.10
2023-03-01T03:17:23.192Z,31.20
2023-03-01T03:18:23.212Z,30.40
2023-03-01T03:19:23.184Z,31.20
2023-03-01T03:20:23.173Z,31.30
2023-03-01T03:21:23.161Z,26.00
2023-03-01T03:22:23.151Z,30.10
2023-03-01T03:23:23.177Z,33.50
2023-03-01T03:24:23.146Z,30.70
2023-03-01T03:25:23.142Z,30.10
2023-03-01T03:26:23.117Z,31.50
2023-03-01T03:27:23.103Z,31.20
2023-03-01T03:28:23.129Z,29.70
2023-03-01T03:29:23.108Z,31.80
2023-03-01T03:30:23.096Z,32.00
2023-03-01T03:31:23.131Z,33.10
2023-03-01T03:32:23.103Z,29.70
2023-03-01T03:33:23.099Z,30.40
2023-03-01T03:34:23.062Z,28.80
2023-03-01T03:35:23.051Z,31.70
2023-03-01T03:36:23.043Z,28.50
2023-03-01T03:37:23.039Z,29.40
2023-03-01T03:38:23.232Z,29.70
2023-03-01T03:39:23.021Z,30.00
2023-03-01T03:40:23.015Z,30.30
2023-03-01T03:41:23.002Z,29.50
2023-03-01T03:42:23.002Z,27.20
2023-03-01T03:43:23.022Z,26.80
2023-03-01T03:44:22.987Z,29.80
2023-03-01T03:45:22.983Z,24.90
2023-03-01T03:46:22.976Z,25.40
2023-03-01T03:47:22.965Z,26.80
2023-03-01T03:48:22.986Z,30.10
2023-03-01T03:49:22.950Z,27.40
2023-03-01T03:50:22.938Z,29.10
2023-03-01T03:51:22.953Z,28.70
2023-03-01T03:52:22.926Z,32.80
2023-03-01T03:53:22.995Z,28.90
2023-03-01T03:54:22.908Z,31.00
2023-03-01T03:55:22.916Z,29.60
2023-03-01T03:56:22.889Z,30.20
2023-03-01T03:57:22.891Z,30.00
2023-03-01T03:58:22.915Z,28.00
2023-03-01T03:59:22.870Z,27.40
2023-03-01T04:00:22.861Z,27.00
2023-03-01T04:01:22.882Z,28.80
2023-03-01T04:02:22.943Z,26.20
2023-03-01T04:03:22.843Z,30.90
2023-03-01T04:04:22.866Z,28.50
2023-03-01T04:05:22.827Z,27.40
2023-03-01T04:06:22.823Z,23.80
2023-03-01T04:07:22.812Z,24.80
2023-03-01T04:08:22.805Z,25.40
2023-03-01T04:09:22.838Z,26.60
2023-03-01T04:10:22.779Z,24.90
2023-03-01T04:11:22.786Z,23.00
2023-03-01T04:12:22.777Z,22.00
2023-03-01T04:13:22.770Z,25.30
2023-03-01T04:14:22.789Z,23.30
2023-03-01T04:15:22.753Z,24.60
2023-03-01T04:16:22.796Z,24.80
2023-03-01T04:17:22.740Z,25.10
2023-03-01T04:18:22.731Z,27.20
2023-03-01T04:19:22.754Z,24.00
2023-03-01T04:20:22.715Z,25.70
2023-03-01T04:21:22.720Z,25.90
2023-03-01T04:22:22.699Z,26.00
2023-03-01T04:23:22.727Z,25.90
2023-03-01T04:24:22.718Z,24.80
2023-03-01T04:25:22.672Z,23.80
2023-03-01T04:26:22.669Z,26.00
2023-03-01T04:27:22.670Z,26.20
2023-03-01T04:28:22.659Z,24.30
2023-03-01T04:29:22.676Z,24.50
2023-03-01T04:30:22.645Z,26.20
2023-03-01T04:31:22.881Z,25.40
2023-03-01T04:32:22.668Z,27.00
2023-03-01T04:33:22.636Z,26.90
2023-03-01T04:34:22.642Z,24.10
2023-03-01T04:35:22.724Z,25.60
2023-03-01T04:36:22.811Z,24.90
2023-03-01T04:37:22.596Z,24.50
2023-03-01T04:38:22.586Z,24.40
2023-03-01T04:39:22.611Z,28.00
2023-03-01T04:40:22.582Z,23.90
2023-03-01T04:41:22.581Z,25.50
2023-03-01T04:42:22.569Z,24.80
2023-03-01T04:43:22.561Z,26.00
2023-03-01T04:44:22.584Z,30.10
2023-03-01T04:45:22.537Z,26.00
2023-03-01T04:46:22.612Z,27.30
2023-03-01T04:47:22.529Z,30.80
2023-03-01T04:48:22.523Z,27.70
2023-03-01T04:49:22.539Z,27.00
2023-03-01T04:50:22.532Z,27.00
2023-03-01T04:51:22.501Z,27.10
2023-03-01T04:52:22.490Z,25.50
2023-03-01T04:53:22.484Z,27.00
2023-03-01T04:54:22.522Z,27.60
2023-03-01T04:55:22.464Z,24.70
2023-03-01T04:56:22.458Z,26.80
2023-03-01T04:57:22.450Z,29.10
2023-03-01T04:58:22.467Z,28.90
2023-03-01T04:59:22.459Z,28.00
2023-03-01T05:00:22.426Z,27.20
2023-03-01T05:01:22.425Z,26.00
2023-03-01T05:02:22.439Z,26.90
2023-03-01T05:03:22.411Z,28.20
2023-03-01T05:04:22.469Z,27.00
2023-03-01T05:05:22.399Z,27.20
2023-03-01T05:06:22.394Z,27.30
2023-03-01T05:07:22.388Z,26.40
2023-03-01T05:08:22.392Z,26.20
2023-03-01T05:09:22.395Z,26.10
2023-03-01T05:10:22.358Z,26.90
2023-03-01T05:11:22.355Z,27.30
2023-03-01T05:12:22.340Z,26.00
2023-03-01T05:13:22.340Z,26.60
2023-03-01T05:14:22.356Z,28.20
2023-03-01T05:15:22.321Z,33.00
2023-03-01T05:16:22.322Z,26.60
2023-03-01T05:17:22.306Z,26.40
2023-03-01T05:18:22.297Z,28.60
2023-03-01T05:19:22.321Z,26.80
2023-03-01T05:20:22.285Z,26.00
2023-03-01T05:21:22.279Z,25.60
2023-03-01T05:22:22.267Z,28.70
2023-03-01T05:23:22.258Z,27.90
2023-03-01T05:24:22.278Z,27.10
2023-03-01T05:25:22.281Z,27.70
2023-03-01T05:26:28.977Z,27.00
2023-03-01T05:27:24.236Z,32.10
2023-03-01T05:28:22.230Z,27.20
2023-03-01T05:29:22.250Z,29.90
2023-03-01T05:30:22.213Z,28.30
2023-03-01T05:31:22.246Z,29.50
2023-03-01T05:32:22.205Z,27.70
2023-03-01T05:33:22.191Z,35.60
2023-03-01T05:34:22.205Z,31.80
2023-03-01T05:35:22.225Z,30.90
2023-03-01T05:36:22.184Z,32.90
2023-03-01T05:37:22.193Z,33.60
2023-03-01T05:38:22.171Z,33.90
2023-03-01T05:39:22.171Z,33.10
2023-03-01T05:40:22.140Z,37.30
2023-03-01T05:41:22.134Z,40.70
2023-03-01T05:42:22.130Z,36.50
2023-03-01T05:43:22.117Z,36.80
2023-03-01T05:44:22.161Z,38.20
2023-03-01T05:45:22.100Z,33.70
2023-03-01T05:46:22.136Z,37.90
2023-03-01T05:47:22.093Z,33.80
2023-03-01T05:48:22.092Z,38.70
2023-03-01T05:49:22.113Z,33.70
2023-03-01T05:50:22.063Z,37.30
2023-03-01T05:51:22.058Z,47.00
2023-03-01T05:52:22.055Z,44.30
2023-03-01T05:53:22.059Z,56.20
2023-03-01T05:54:22.068Z,54.20
2023-03-01T05:55:22.046Z,59.60
2023-03-01T05:56:22.025Z,52.90
2023-03-01T05:57:22.019Z,53.60
2023-03-01T05:58:22.011Z,52.70
2023-03-01T05:59:22.030Z,48.00
2023-03-01T06:00:21.996Z,40.80
2023-03-01T06:01:21.986Z,37.10
2023-03-01T06:02:22.002Z,35.20
2023-03-01T06:03:21.976Z,39.20
2023-03-01T06:04:22.042Z,41.20
2023-03-01T06:05:21.972Z,38.10
2023-03-01T06:06:21.964Z,39.90
2023-03-01T06:07:21.941Z,34.20
2023-03-01T06:08:21.946Z,33.60
2023-03-01T06:09:21.953Z,32.00
2023-03-01T06:10:21.936Z,30.50
2023-03-01T06:11:21.925Z,29.80
2023-03-01T06:12:21.931Z,30.90
2023-03-01T06:13:21.912Z,32.80
2023-03-01T06:14:21.962Z,31.20
2023-03-01T06:15:21.890Z,31.00
2023-03-01T06:16:21.878Z,28.30
2023-03-01T06:17:22.880Z,32.60
2023-03-01T06:18:21.865Z,32.10
2023-03-01T06:19:21.905Z,29.40
2023-03-01T06:20:21.860Z,33.00
2023-03-01T06:21:21.843Z,32.60
2023-03-01T06:22:21.849Z,32.40
2023-03-01T06:23:21.826Z,31.00
2023-03-01T06:24:21.829Z,33.40
2023-03-01T06:25:21.849Z,27.40
2023-03-01T06:26:21.818Z,31.50
2023-03-01T06:27:21.806Z,32.00
2023-03-01T06:28:21.803Z,26.20
2023-03-01T06:29:21.794Z,28.30
2023-03-01T06:30:21.823Z,30.60
2023-03-01T06:31:21.786Z,27.00
2023-03-01T06:32:21.817Z,29.30
2023-03-01T06:33:21.758Z,29.60
2023-03-01T06:34:21.783Z,36.70
2023-03-01T06:35:21.819Z,38.70
2023-03-01T06:36:21.741Z,41.10
2023-03-01T06:37:21.741Z,30.70
2023-03-01T06:38:21.724Z,28.60
2023-03-01T06:39:21.713Z,31.30
2023-03-01T06:40:21.737Z,34.60
2023-03-01T06:41:21.711Z,45.50
2023-03-01T06:42:21.689Z,38.30
2023-03-01T06:43:21.693Z,35.80
2023-03-01T06:44:21.681Z,32.70
2023-03-01T06:45:21.691Z,28.00
2023-03-01T06:46:21.699Z,26.60
2023-03-01T06:47:21.666Z,23.20
2023-03-01T06:48:21.665Z,24.30
2023-03-01T06:49:21.649Z,20.90
2023-03-01T06:50:21.736Z,20.40
2023-03-01T06:51:21.641Z,20.00
2023-03-01T06:52:21.626Z,20.40
2023-03-01T06:53:21.620Z,20.50
2023-03-01T06:54:21.610Z,20.00
2023-03-01T06:55:21.629Z,19.30
2023-03-01T06:56:21.596Z,20.80
2023-03-01T06:57:21.581Z,20.50
2023-03-01T06:58:21.587Z,15.70
2023-03-01T06:59:21.570Z,17.00
2023-03-01T07:00:21.590Z,17.10
2023-03-01T07:01:21.695Z,16.70
2023-03-01T07:02:21.549Z,16.10
2023-03-01T07:03:21.540Z,18.00
2023-03-01T07:04:21.532Z,16.20
2023-03-01T07:05:21.556Z,17.70
2023-03-01T07:06:21.527Z,15.30
2023-03-01T07:07:21.504Z,17.30
2023-03-01T07:08:21.508Z,18.10
2023-03-01T07:09:21.497Z,16.50
2023-03-01T07:10:22.468Z,15.80
2023-03-01T07:11:21.484Z,15.80
2023-03-01T07:12:21.476Z,18.90
2023-03-01T07:13:21.469Z,17.70
2023-03-01T07:14:21.514Z,17.30
2023-03-01T07:15:21.498Z,15.60
2023-03-01T07:16:21.530Z,16.70
2023-03-01T07:17:21.467Z,16.40
2023-03-01T07:18:21.462Z,16.00
2023-03-01T07:19:21.438Z,15.90
2023-03-01T07:20:21.456Z,18.70
2023-03-01T07:21:21.415Z,17.00
2023-03-01T07:22:21.409Z,16.50
2023-03-01T07:23:21.415Z,17.70
2023-03-01T07:24:21.385Z,17.50
2023-03-01T07:25:21.434Z,14.30
2023-03-01T07:26:21.389Z,17.20
2023-03-01T07:27:21.370Z,15.00
2023-03-01T07:28:21.359Z,14.80
2023-03-01T07:29:21.353Z,15.10
2023-03-01T07:30:21.368Z,16.10
2023-03-01T07:31:21.338Z,16.00
2023-03-01T07:32:21.402Z,18.20
2023-03-01T07:33:21.371Z,21.00
2023-03-01T07:34:21.312Z,16.20
2023-03-01T07:35:21.329Z,17.90
2023-03-01T07:36:21.290Z,16.40
2023-03-01T07:37:21.292Z,15.50
2023-03-01T07:38:21.280Z,18.00
2023-03-01T07:39:21.278Z,18.40
2023-03-01T07:40:21.307Z,16.10
2023-03-01T07:41:21.265Z,17.40
2023-03-01T07:42:21.249Z,13.80
2023-03-01T07:43:21.242Z,15.60
2023-03-01T07:44:21.242Z,16.70
2023-03-01T07:45:21.396Z,15.80
2023-03-01T07:46:21.220Z,15.20
2023-03-01T07:47:21.203Z,15.90
2023-03-01T07:48:21.210Z,14.80
2023-03-01T07:49:21.201Z,16.20
2023-03-01T07:50:21.213Z,18.90
2023-03-01T07:51:22.162Z,15.90
2023-03-01T07:52:22.167Z,16.20
2023-03-01T07:53:21.161Z,16.70
2023-03-01T07:54:21.151Z,15.50
2023-03-01T07:55:21.166Z,15.40
2023-03-01T07:56:21.136Z,14.70
2023-03-01T07:57:21.137Z,13.80
2023-03-01T07:58:21.127Z,14.40
2023-03-01T07:59:21.119Z,14.20
2023-03-01T08:00:21.134Z,13.40
2023-03-01T08:01:21.089Z,15.10
2023-03-01T08:02:22.107Z,13.20
2023-03-01T08:03:21.083Z,14.20
2023-03-01T08:04:21.094Z,13.40
2023-03-01T08:05:21.099Z,12.70
2023-03-01T08:06:21.061Z,13.70
2023-03-01T08:07:21.063Z,15.90
2023-03-01T08:08:21.059Z,13.50
2023-03-01T08:09:21.045Z,15.00
2023-03-01T08:10:21.069Z,15.50
2023-03-01T08:11:21.234Z,11.90
2023-03-01T08:12:21.019Z,13.60
2023-03-01T08:13:21.012Z,15.80
2023-03-01T08:14:21.007Z,12.80
2023-03-01T08:15:21.018Z,12.80
2023-03-01T08:16:21.044Z,12.90
2023-03-01T08:17:20.981Z,13.50
2023-03-01T08:18:20.972Z,13.40
2023-03-01T08:19:20.964Z,14.00
2023-03-01T08:20:21.048Z,14.00
2023-03-01T08:21:20.949Z,12.50
2023-03-01T08:22:20.939Z,17.70
2023-03-01T08:23:20.926Z,13.80
2023-03-01T08:24:21.929Z,12.20
2023-03-01T08:25:21.018Z,10.60
2023-03-01T08:26:20.906Z,15.90
2023-03-01T08:27:20.902Z,10.00
2023-03-01T08:28:20.899Z,11.10
2023-03-01T08:29:20.896Z,12.10
2023-03-01T08:30:20.908Z,11.80
2023-03-01T08:31:20.918Z,12.70
2023-03-01T08:32:20.998Z,13.20
2023-03-01T08:33:20.915Z,11.80
2023-03-01T08:34:20.848Z,13.50
2023-03-01T08:35:20.875Z,11.60
2023-03-01T08:36:20.860Z,12.10
2023-03-01T08:37:20.824Z,14.30
2023-03-01T08:38:20.818Z,9.90
2023-03-01T08:39:20.856Z,10.40
2023-03-01T08:40:20.823Z,11.20
2023-03-01T08:41:20.794Z,10.50
2023-03-01T08:42:20.800Z,10.90
2023-03-01T08:43:22.443Z,10.60
2023-03-01T08:44:20.778Z,12.00
2023-03-01T08:45:20.794Z,10.20
2023-03-01T08:46:20.754Z,10.10
2023-03-01T08:47:20.747Z,10.80
2023-03-01T08:48:20.750Z,11.40
2023-03-01T08:49:20.753Z,12.80
2023-03-01T08:50:20.760Z,11.70
2023-03-01T08:51:20.723Z,12.40
2023-03-01T08:52:20.708Z,11.40
2023-03-01T08:53:20.705Z,12.30
2023-03-01T08:54:20.690Z,11.70
2023-03-01T08:55:20.712Z,12.90
2023-03-01T08:56:20.707Z,10.40
2023-03-01T08:57:20.674Z,10.40
2023-03-01T08:58:20.669Z,16.00
2023-03-01T08:59:20.661Z,12.50
2023-03-01T09:00:20.681Z,14.50
2023-03-01T09:01:20.642Z,13.30
2023-03-01T09:02:20.674Z,12.20
2023-03-01T09:03:20.651Z,13.00
2023-03-01T09:04:20.619Z,11.80
2023-03-01T09:05:20.642Z,12.60
2023-03-01T09:06:20.624Z,12.80
2023-03-01T09:07:20.604Z,10.10
2023-03-01T09:08:20.603Z,10.60
2023-03-01T09:09:20.619Z,12.60
2023-03-01T09:10:20.611Z,12.80
2023-03-01T09:11:20.577Z,11.90
2023-03-01T09:12:20.561Z,11.50
2023-03-01T09:13:20.551Z,12.10
2023-03-01T09:14:20.543Z,12.90
2023-03-01T09:15:21.562Z,13.30
2023-03-01T09:16:20.584Z,12.20
2023-03-01T09:17:20.529Z,10.70
2023-03-01T09:18:20.521Z,10.80
2023-03-01T09:19:20.516Z,11.40
2023-03-01T09:20:20.557Z,11.20
2023-03-01T09:21:27.504Z,11.40
2023-03-01T09:22:22.496Z,10.80
2023-03-01T09:23:20.482Z,12.60
2023-03-01T09:24:20.468Z,13.20
2023-03-01T09:25:20.495Z,14.50
2023-03-01T09:26:20.456Z,12.70
2023-03-01T09:27:20.449Z,11.60
2023-03-01T09:28:29.474Z,10.70
2023-03-01T09:29:22.430Z,11.10
2023-03-01T09:30:20.444Z,11.40
2023-03-01T09:31:20.489Z,11.90
2023-03-01T09:32:20.430Z,13.60
2023-03-01T09:33:20.577Z,12.60
2023-03-01T09:34:20.401Z,12.60
2023-03-01T09:35:20.404Z,12.90
2023-03-01T09:36:20.374Z,12.50
2023-03-01T09:37:20.370Z,12.80
2023-03-01T09:38:20.373Z,13.90
2023-03-01T09:39:20.352Z,11.50
2023-03-01T09:40:20.352Z,13.70
2023-03-01T09:41:20.353Z,13.20
2023-03-01T09:42:20.327Z,13.60
2023-03-01T09:43:20.319Z,12.00
2023-03-01T09:44:20.306Z,14.40
2023-03-01T09:45:20.323Z,14.00
2023-03-01T09:46:20.309Z,12.20
2023-03-01T09:47:20.287Z,14.40
2023-03-01T09:48:20.299Z,15.00
2023-03-01T09:49:20.607Z,13.40
2023-03-01T09:50:21.296Z,14.00
2023-03-01T09:51:20.255Z,13.50
2023-03-01T09:52:20.289Z,13.20
2023-03-01T09:53:20.247Z,14.60
2023-03-01T09:54:20.251Z,14.80
2023-03-01T09:55:20.227Z,14.40
2023-03-01T09:56:20.270Z,12.70
2023-03-01T09:57:20.212Z,13.90
2023-03-01T09:58:20.204Z,15.70
2023-03-01T09:59:22.242Z,13.30
2023-03-01T10:00:20.213Z,12.30
2023-03-01T10:01:20.205Z,14.80
2023-03-01T10:02:20.175Z,14.60
2023-03-01T10:03:20.202Z,12.40
2023-03-01T10:04:20.279Z,14.20
2023-03-01T10:05:20.169Z,13.60
2023-03-01T10:06:33.969Z,12.50
2023-03-01T10:07:22.144Z,17.30
2023-03-01T10:08:20.134Z,15.00
2023-03-01T10:09:20.119Z,14.80
2023-03-01T10:10:20.114Z,10.60
2023-03-01T10:11:21.336Z,13.60
2023-03-01T10:12:21.100Z,12.80
2023-03-01T10:13:20.095Z,15.50
2023-03-01T10:14:20.088Z,13.80
2023-03-01T10:15:20.075Z,14.30
2023-03-01T10:16:20.099Z,15.40
2023-03-01T10:17:20.438Z,14.20
2023-03-01T10:18:21.048Z,16.80
2023-03-01T10:19:20.045Z,14.40
2023-03-01T10:20:20.037Z,15.40
2023-03-01T10:21:20.055Z,14.80
2023-03-01T10:22:20.017Z,15.00
2023-03-01T10:23:20.011Z,13.70
2023-03-01T10:24:20.017Z,15.00
2023-03-01T10:25:20.002Z,14.80
2023-03-01T10:26:20.016Z,14.50
2023-03-01T10:27:19.990Z,14.60
2023-03-01T10:28:20.074Z,18.30
2023-03-01T10:29:19.973Z,17.10
2023-03-01T10:30:19.952Z,17.40
2023-03-01T10:31:20.032Z,17.40
2023-03-01T10:32:20.005Z,18.90
2023-03-01T10:33:19.937Z,18.30
2023-03-01T10:34:19.928Z,15.00
2023-03-01T10:35:19.933Z,18.60
2023-03-01T10:36:19.955Z,15.50
2023-03-01T10:37:19.907Z,17.40
2023-03-01T10:38:19.903Z,17.30
2023-03-01T10:39:19.890Z,16.90
2023-03-01T10:40:19.892Z,16.50
2023-03-01T10:41:19.912Z,17.40
2023-03-01T10:42:19.889Z,18.50
2023-03-01T10:43:19.855Z,19.80
2023-03-01T10:44:19.869Z,18.20
2023-03-01T10:45:19.849Z,17.80
2023-03-01T10:46:20.006Z,16.90
2023-03-01T10:47:19.833Z,18.20
2023-03-01T10:48:19.826Z,17.80
2023-03-01T10:49:19.822Z,15.90
2023-03-01T10:50:19.817Z,18.40
2023-03-01T10:51:19.832Z,22.50
2023-03-01T10:52:19.801Z,15.10
2023-03-01T10:53:19.791Z,18.80
2023-03-01T10:54:19.780Z,15.50
2023-03-01T10:55:19.781Z,14.80
2023-03-01T10:56:19.802Z,16.60
2023-03-01T10:57:19.789Z,18.50
2023-03-01T10:58:19.749Z,17.00
2023-03-01T10:59:19.755Z,16.50
2023-03-01T11:00:19.756Z,17.60
2023-03-01T11:01:19.795Z,17.90
2023-03-01T11:02:25.474Z,16.20
2023-03-01T11:03:22.720Z,17.20
2023-03-01T11:04:20.714Z,15.60
2023-03-01T11:05:19.693Z,17.70
2023-03-01T11:06:19.700Z,16.90
2023-03-01T11:07:19.711Z,16.80
2023-03-01T11:08:19.675Z,18.00
2023-03-01T11:09:19.677Z,17.10
2023-03-01T11:10:19.660Z,16.30
2023-03-01T11:11:19.656Z,16.30
2023-03-01T11:12:19.734Z,14.40
2023-03-01T11:13:19.675Z,16.10
2023-03-01T11:14:26.955Z,16.90
2023-03-01T11:15:21.614Z,14.90
2023-03-01T11:16:19.652Z,15.10
2023-03-01T11:17:19.635Z,13.80
2023-03-01T11:18:19.603Z,15.90
2023-03-01T11:19:19.593Z,16.10
2023-03-01T11:20:19.594Z,14.00
2023-03-01T11:21:19.575Z,16.50
2023-03-01T11:22:19.679Z,17.30
2023-03-01T11:23:19.555Z,13.10
2023-03-01T11:24:19.550Z,15.30
2023-03-01T11:25:19.537Z,18.20
2023-03-01T11:26:19.532Z,14.90
2023-03-01T11:27:19.564Z,14.70
2023-03-01T11:28:19.519Z,13.40
2023-03-01T11:29:19.512Z,15.40
2023-03-01T11:30:19.498Z,16.30
2023-03-01T11:31:19.551Z,13.50
2023-03-01T11:32:19.632Z,14.50
2023-03-01T11:33:19.478Z,14.40
2023-03-01T11:34:19.471Z,15.60
2023-03-01T11:35:19.462Z,17.00
2023-03-01T11:36:19.464Z,15.90
2023-03-01T11:37:20.482Z,14.00
2023-03-01T11:38:19.438Z,15.50
2023-03-01T11:39:19.432Z,14.60
2023-03-01T11:40:19.428Z,16.40
2023-03-01T11:41:19.446Z,16.40
2023-03-01T11:42:19.750Z,16.30
2023-03-01T11:43:19.420Z,15.00
2023-03-01T11:44:19.398Z,14.80
2023-03-01T11:45:19.384Z,17.20
2023-03-01T11:46:19.416Z,17.50
2023-03-01T11:47:19.491Z,15.20
2023-03-01T11:48:19.381Z,15.40
2023-03-01T11:49:19.363Z,15.30
2023-03-01T11:50:19.345Z,17.80
2023-03-01T11:51:19.340Z,15.00
2023-03-01T11:52:19.354Z,15.80
2023-03-01T11:53:19.323Z,19.10
2023-03-01T11:54:19.318Z,15.30
2023-03-01T11:55:19.334Z,15.30
2023-03-01T11:56:19.307Z,16.50
2023-03-01T11:57:19.316Z,14.20
2023-03-01T11:58:19.283Z,15.30
2023-03-01T11:59:19.285Z,14.80
2023-03-01T12:00:19.273Z,16.70
2023-03-01T12:01:19.266Z,14.70
2023-03-01T12:02:19.340Z,15.80
2023-03-01T12:03:19.250Z,14.70
2023-03-01T12:04:19.327Z,12.50
2023-03-01T12:05:20.232Z,15.40
2023-03-01T12:06:19.232Z,16.00
2023-03-01T12:07:19.254Z,15.00
2023-03-01T12:08:19.230Z,15.70
2023-03-01T12:09:19.205Z,14.50
2023-03-01T12:10:19.198Z,14.90
2023-03-01T12:11:19.178Z,14.20
2023-03-01T12:12:20.209Z,16.30
2023-03-01T12:13:19.179Z,16.00
2023-03-01T12:14:19.168Z,15.80
2023-03-01T12:15:19.158Z,15.10
2023-03-01T12:16:28.780Z,16.80
2023-03-01T12:17:21.224Z,15.20
2023-03-01T12:18:19.133Z,17.00
2023-03-01T12:19:19.212Z,14.30
2023-03-01T12:20:19.111Z,13.30
2023-03-01T12:21:19.122Z,18.40
2023-03-01T12:22:19.112Z,14.30
2023-03-01T12:23:21.002Z,16.60
2023-03-01T12:24:20.104Z,17.60
2023-03-01T12:25:19.089Z,14.00
2023-03-01T12:26:19.089Z,15.30
2023-03-01T12:27:19.075Z,14.50
2023-03-01T12:28:19.082Z,16.10
2023-03-01T12:29:19.057Z,12.70
2023-03-01T12:30:19.046Z,14.70
2023-03-01T12:31:19.065Z,15.40
2023-03-01T12:32:19.184Z,15.90
2023-03-01T12:33:20.050Z,14.70
2023-03-01T12:34:19.021Z,14.20
2023-03-01T12:35:19.012Z,17.10
2023-03-01T12:36:19.009Z,15.60
2023-03-01T12:37:19.011Z,14.40
2023-03-01T12:38:19.017Z,12.40
2023-03-01T12:39:20.345Z,13.60
2023-03-01T12:40:19.968Z,16.20
2023-03-01T12:41:18.970Z,16.80
2023-03-01T12:42:18.964Z,14.60
2023-03-01T12:43:18.969Z,15.80
2023-03-01T12:44:18.938Z,15.10
2023-03-01T12:45:18.933Z,16.30
2023-03-01T12:46:18.928Z,13.70
2023-03-01T12:47:18.916Z,13.10
2023-03-01T12:48:18.937Z,14.30
2023-03-01T12:49:18.906Z,14.10
2023-03-01T12:50:18.895Z,13.10
2023-03-01T12:51:18.890Z,14.20
2023-03-01T12:52:18.907Z,13.70